Time;durP1;ratioP1;P1;durP2;ratioP2;P2;SDS_P1;SDS_P2;PMS_P1;PMS_P2;Temp;Humidity;BMP_temperature;BMP_pressure;BME280_temperature;BME280_humidity;BME280_pressure;Samples;Min_cycle;Max_cycle;Signal;HPM_P1;HPM_P2
2022/03/29 00:01:12;;;;;;;20.00;18.27;;;;;;;22.63;26.80;95249.03;6022886;28;104189;-67
2022/03/29 00:04:18;;;;;;;18.80;17.20;;;;;;;22.62;26.83;95241.34;6036462;28;104455;-68
2022/03/29 00:07:20;;;;;;;18.00;16.60;;;;;;;22.63;26.93;95240.25;6024489;28;103085;-68
2022/03/29 00:10:22;;;;;;;19.70;18.00;;;;;;;22.62;26.93;95228.78;6019107;28;104457;-68
2022/03/29 00:13:24;;;;;;;19.80;18.03;;;;;;;22.61;26.85;95227.22;6040727;28;105831;-65
2022/03/29 00:20:23;;;;;;;17.23;15.83;;;;;;;22.61;26.73;95243.22;6042927;28;103406;-69
2022/03/29 00:23:25;;;;;;;18.00;16.50;;;;;;;22.61;26.95;95234.44;6024012;28;103374;-69
2022/03/29 00:26:27;;;;;;;18.97;17.37;;;;;;;22.60;26.60;95228.31;6041102;28;103398;-69
2022/03/29 00:29:29;;;;;;;18.10;16.67;;;;;;;22.59;27.13;95224.06;6039974;28;103185;-68
2022/03/29 00:32:31;;;;;;;17.97;16.47;;;;;;;22.59;26.77;95217.94;6035588;28;104337;-70
2022/03/29 00:35:33;;;;;;;18.33;16.93;;;;;;;22.56;26.72;95205.19;6040492;28;103165;-67
2022/03/29 00:38:35;;;;;;;19.37;17.73;;;;;;;22.58;26.67;95201.16;6042515;28;103943;-67
2022/03/29 00:41:37;;;;;;;19.23;17.70;;;;;;;22.59;26.86;95205.41;6042154;28;103273;-69
2022/03/29 00:44:38;;;;;;;18.13;16.73;;;;;;;22.57;27.06;95202.25;6016116;28;103141;-68
2022/03/29 00:47:41;;;;;;;19.33;17.63;;;;;;;22.58;26.89;95206.50;6041315;28;104172;-68
2022/03/29 00:50:43;;;;;;;18.43;17.00;;;;;;;22.57;27.04;95196.94;6023798;28;104014;-68
2022/03/29 00:53:46;;;;;;;18.53;17.03;;;;;;;22.55;26.95;95198.28;6039899;28;103329;-67
2022/03/29 00:56:48;;;;;;;20.03;18.33;;;;;;;22.55;27.24;95188.41;6035496;28;103129;-68
2022/03/29 00:59:51;;;;;;;18.70;17.10;;;;;;;22.56;27.04;95181.97;6023833;28;103392;-67
2022/03/29 01:02:53;;;;;;;19.00;17.33;;;;;;;22.55;27.00;95185.75;6023529;28;103110;-67
2022/03/29 01:05:55;;;;;;;18.20;16.80;;;;;;;22.55;26.95;95182.28;6036009;28;104962;-68
2022/03/29 01:08:56;;;;;;;19.73;18.13;;;;;;;22.56;27.14;95176.66;6042087;28;103400;-68
2022/03/29 01:11:59;;;;;;;18.47;16.97;;;;;;;22.54;26.78;95173.50;6039272;28;102824;-68
2022/03/29 01:15:04;;;;;;;18.17;16.57;;;;;;;22.55;26.73;95169.75;6041144;28;103344;-68
2022/03/29 01:18:08;;;;;;;17.93;16.43;;;;;;;22.57;27.02;95166.81;6017669;28;103007;-67
2022/03/29 01:21:15;;;;;;;17.00;15.70;;;;;;;22.57;26.86;95166.81;6042425;28;103325;-68
2022/03/29 01:24:16;;;;;;;17.27;15.80;;;;;;;22.57;26.72;95156.13;6040189;28;103153;-67
2022/03/29 01:27:20;;;;;;;16.97;15.60;;;;;;;22.57;26.88;95151.59;6036305;28;103410;-68
2022/03/29 01:30:22;;;;;;;16.13;14.70;;;;;;;22.54;27.05;95152.16;6039958;28;104448;-68
2022/03/29 01:33:24;;;;;;;15.10;13.90;;;;;;;22.49;26.89;95138.94;6039105;28;103423;-67
2022/03/29 01:36:27;;;;;;;15.30;14.10;;;;;;;22.46;27.11;95136.91;6041911;28;103499;-68
2022/03/29 01:39:29;;;;;;;15.40;14.20;;;;;;;22.47;26.70;95127.00;6035970;28;103743;-67
2022/03/29 01:42:30;;;;;;;15.17;13.97;;;;;;;22.48;27.09;95129.38;6039167;28;103050;-65
2022/03/29 01:45:32;;;;;;;14.67;13.57;;;;;;;22.42;27.26;95111.94;6038871;28;103199;-66
2022/03/29 01:48:34;;;;;;;16.13;14.73;;;;;;;22.47;26.77;95119.81;6039287;28;103114;-68
2022/03/29 01:51:36;;;;;;;14.80;13.60;;;;;;;22.48;26.52;95118.69;6035007;28;103417;-68
2022/03/29 01:54:38;;;;;;;14.87;13.63;;;;;;;22.41;26.84;95105.81;6022749;28;103510;-67
2022/03/29 01:57:40;;;;;;;16.33;15.03;;;;;;;22.42;26.78;95111.94;6038664;28;103051;-66
2022/03/29 02:00:41;;;;;;;15.47;14.17;;;;;;;22.38;26.63;95098.44;6033284;28;105303;-65
2022/03/29 02:03:43;;;;;;;16.37;15.07;;;;;;;22.45;27.05;95110.53;6040453;28;105095;-67
2022/03/29 02:06:45;;;;;;;15.90;14.60;;;;;;;22.45;26.63;95102.53;6041260;28;103145;-68
2022/03/29 02:09:47;;;;;;;15.73;14.43;;;;;;;22.45;26.95;95100.66;6040934;28;103308;-65
2022/03/29 02:12:50;;;;;;;15.40;14.20;;;;;;;22.43;27.19;95094.84;6034507;28;103844;-66
2022/03/29 02:15:52;;;;;;;16.50;15.10;;;;;;;22.42;26.98;95093.28;6023595;28;103146;-67
2022/03/29 02:18:53;;;;;;;14.83;13.67;;;;;;;22.41;27.20;95086.38;6021960;28;103324;-67
2022/03/29 02:21:55;;;;;;;15.20;14.00;;;;;;;22.40;26.89;95082.91;6029306;28;103278;-68
2022/03/29 02:24:57;;;;;;;15.93;14.53;;;;;;;22.41;26.88;95087.16;6017858;28;103270;-68
2022/03/29 02:27:59;;;;;;;15.67;14.37;;;;;;;22.37;26.72;95083.53;6039944;28;103351;-67
2022/03/29 02:31:02;;;;;;;15.40;14.20;;;;;;;22.36;27.11;95071.28;6040023;28;103328;-68
2022/03/29 02:34:04;;;;;;;16.23;14.83;;;;;;;22.37;27.00;95077.41;6034055;28;103483;-68
2022/03/29 02:37:05;;;;;;;15.17;13.87;;;;;;;22.37;27.11;95074.75;6023850;28;103263;-68
2022/03/29 02:40:09;;;;;;;14.70;13.60;;;;;;;22.39;26.77;95075.22;6039404;28;104296;-68
2022/03/29 02:43:11;;;;;;;16.07;14.77;;;;;;;22.38;26.62;95078.97;6038377;28;103340;-65
2022/03/29 02:46:13;;;;;;;16.10;14.70;;;;;;;22.35;26.93;95080.38;6031271;28;103366;-66
2022/03/29 02:49:15;;;;;;;15.10;13.90;;;;;;;22.34;26.97;95083.34;6039852;28;104063;-67
2022/03/29 02:52:17;;;;;;;15.07;13.87;;;;;;;22.36;26.83;95076.63;6037688;28;103601;-68
2022/03/29 02:55:20;;;;;;;15.20;14.00;;;;;;;22.34;26.68;95072.66;6036538;28;104015;-68
2022/03/29 02:58:22;;;;;;;14.57;13.37;;;;;;;22.35;26.65;95082.28;6039188;28;102890;-68
2022/03/29 03:01:28;;;;;;;14.73;13.53;;;;;;;22.28;27.09;95068.56;6035940;28;103642;-65
2022/03/29 03:04:31;;;;;;;14.60;13.40;;;;;;;22.34;26.87;95078.78;6039108;28;103539;-68
2022/03/29 03:07:33;;;;;;;15.17;13.97;;;;;;;22.35;27.25;95080.38;6017184;28;104202;-66
2022/03/29 03:10:34;;;;;;;15.53;14.07;;;;;;;22.33;27.11;95065.75;6021623;28;103315;-68
2022/03/29 03:13:36;;;;;;;15.60;14.40;;;;;;;22.27;26.82;95062.47;6038743;28;104182;-66
2022/03/29 03:16:38;;;;;;;14.90;13.80;;;;;;;22.33;26.77;95073.75;6020203;28;104072;-67
2022/03/29 03:20:00;;;;;;;14.30;13.00;;;;;;;22.30;27.09;95067.16;6034722;28;104015;-64
2022/03/29 03:23:02;;;;;;;14.97;13.67;;;;;;;22.31;27.10;95063.41;6048621;28;103051;-63
2022/03/29 03:26:04;;;;;;;13.90;12.80;;;;;;;22.35;27.14;95068.94;6036021;28;103546;-61
2022/03/29 03:29:06;;;;;;;14.37;13.20;;;;;;;22.36;26.87;95067.84;6033093;28;105466;-62
2022/03/29 03:32:08;;;;;;;13.87;12.77;;;;;;;22.38;27.12;95066.44;6034878;28;103199;-60
2022/03/29 03:35:11;;;;;;;13.33;12.03;;;;;;;22.33;28.58;95063.09;6033869;28;103351;-63
2022/03/29 03:38:13;;;;;;;13.50;12.40;;;;;;;22.35;27.86;95063.59;6035930;28;103065;-62
2022/03/29 03:41:15;;;;;;;13.43;12.27;;;;;;;22.29;27.63;95054.94;6031334;28;103710;-61
2022/03/29 03:44:16;;;;;;;16.73;12.43;;;;;;;22.27;27.42;95067.78;6020727;28;103375;-65
2022/03/29 03:47:19;;;;;;;13.93;11.97;;;;;;;22.10;28.23;95071.16;6038625;28;103070;-65
2022/03/29 03:50:20;;;;;;;17.90;11.30;;;;;;;21.88;27.46;95068.50;6019263;28;103429;-65
2022/03/29 03:53:22;;;;;;;13.07;11.77;;;;;;;21.85;28.06;95063.00;6036699;28;103013;-63
2022/03/29 03:56:24;;;;;;;13.07;11.83;;;;;;;21.94;27.66;95066.50;6030833;28;103438;-64
2022/03/29 03:59:26;;;;;;;11.43;10.40;;;;;;;21.91;28.13;95069.78;6039420;28;103517;-63
2022/03/29 04:02:28;;;;;;;12.73;10.60;;;;;;;21.90;30.10;95076.19;6017842;28;103791;-66
2022/03/29 04:05:30;;;;;;;12.30;11.20;;;;;;;21.87;29.16;95072.25;6020746;28;103435;-64
2022/03/29 04:08:31;;;;;;;16.13;11.10;;;;;;;21.93;29.45;95057.72;6036494;28;103857;-61
2022/03/29 04:11:33;;;;;;;12.57;10.20;;;;;;;22.05;28.27;95062.50;6036461;28;103227;-63
2022/03/29 04:14:36;;;;;;;11.57;10.50;;;;;;;22.11;28.11;95070.06;6032872;28;103348;-63
2022/03/29 04:17:38;;;;;;;10.30;9.40;;;;;;;22.14;28.28;95060.66;6035674;28;103250;-65
2022/03/29 04:20:40;;;;;;;11.83;10.60;;;;;;;22.08;28.25;95067.22;6034448;28;104308;-66
2022/03/29 04:23:42;;;;;;;11.53;10.30;;;;;;;22.14;28.62;95062.53;6029938;28;103420;-64
2022/03/29 04:26:44;;;;;;;10.87;9.97;;;;;;;22.12;28.59;95065.50;6038198;28;103125;-64
2022/03/29 04:29:46;;;;;;;10.07;9.23;;;;;;;22.14;28.50;95073.97;6037516;28;103097;-64
2022/03/29 04:32:48;;;;;;;9.87;8.97;;;;;;;22.16;28.45;95065.69;6038068;28;103030;-63
2022/03/29 04:35:50;;;;;;;10.90;10.00;;;;;;;22.09;29.05;95061.56;6033652;28;103067;-63
2022/03/29 04:38:52;;;;;;;14.37;9.80;;;;;;;22.18;28.58;95068.81;6038133;28;103971;-64
2022/03/29 04:41:54;;;;;;;12.07;10.77;;;;;;;22.19;28.33;95059.75;6038208;28;103286;-63
2022/03/29 04:45:09;;;;;;;11.90;10.90;;;;;;;22.18;28.74;95066.97;6037042;28;103124;-62
2022/03/29 04:48:12;;;;;;;11.33;10.10;;;;;;;22.14;28.29;95054.53;6032629;28;104060;-63
2022/03/29 04:51:13;;;;;;;11.50;10.50;;;;;;;22.23;28.20;95055.38;6037874;28;103040;-63
2022/03/29 04:54:16;;;;;;;10.83;9.93;;;;;;;22.21;28.13;95057.56;6024503;28;103970;-64
2022/03/29 04:57:18;;;;;;;11.80;10.70;;;;;;;22.23;28.69;95069.50;6036374;28;102999;-63
2022/03/29 05:00:21;;;;;;;11.37;10.07;;;;;;;22.21;28.21;95061.03;6041719;28;102778;-62
2022/03/29 05:03:22;;;;;;;10.63;9.83;;;;;;;22.21;28.22;95060.25;6042461;28;103248;-64
2022/03/29 05:06:24;;;;;;;12.30;11.20;;;;;;;22.22;28.23;95056.47;6042051;28;103089;-63
2022/03/29 05:09:26;;;;;;;11.40;10.40;;;;;;;22.25;28.56;95061.19;6019266;28;103230;-63
2022/03/29 05:12:28;;;;;;;11.43;10.40;;;;;;;22.09;28.40;95036.81;6042248;28;104649;-63
2022/03/29 05:15:30;;;;;;;11.33;10.33;;;;;;;22.23;28.41;95061.50;6041585;28;103579;-63
2022/03/29 05:18:32;;;;;;;11.87;10.70;;;;;;;22.29;28.47;95068.25;6038066;28;103994;-65
2022/03/29 05:21:33;;;;;;;12.10;11.10;;;;;;;22.29;28.50;95067.47;6033676;28;103285;-64
2022/03/29 05:24:35;;;;;;;12.00;11.00;;;;;;;22.30;28.49;95061.06;6064206;28;103001;-64
2022/03/29 05:27:37;;;;;;;13.27;12.17;;;;;;;22.29;28.32;95065.59;6065123;28;104147;-63
2022/03/29 05:30:39;;;;;;;13.30;12.03;;;;;;;22.30;28.54;95063.72;6059445;28;103236;-63
2022/03/29 05:33:41;;;;;;;13.57;12.27;;;;;;;22.30;28.49;95058.38;6063778;28;103187;-64
2022/03/29 05:36:45;;;;;;;15.60;14.10;;;;;;;22.29;28.95;95062.16;6063900;28;102916;-63
2022/03/29 05:39:47;;;;;;;14.60;13.37;;;;;;;22.31;28.69;95062.63;6064408;28;103471;-63
2022/03/29 05:42:48;;;;;;;15.37;13.90;;;;;;;22.32;28.26;95061.53;6058592;28;103123;-63
2022/03/29 05:49:11;;;;;;;17.23;15.73;;;;;;;22.41;28.25;95054.38;6062781;28;103216;-63
2022/03/29 05:52:13;;;;;;;15.80;14.40;;;;;;;22.43;28.55;95054.84;6058000;28;103194;-63
2022/03/29 05:55:15;;;;;;;17.20;15.70;;;;;;;22.47;28.24;95055.81;6063325;28;105532;-63
2022/03/29 05:58:17;;;;;;;17.87;16.20;;;;;;;22.41;27.99;95047.16;6064199;28;103547;-64
2022/03/29 06:01:19;;;;;;;16.37;14.93;;;;;;;22.54;28.04;95053.50;6063244;28;103242;-63
2022/03/29 06:04:23;;;;;;;17.10;15.70;;;;;;;22.52;28.13;95053.03;6056954;28;103026;-63
2022/03/29 06:07:25;;;;;;;17.57;16.00;;;;;;;22.63;28.04;95056.22;6063416;28;103401;-64
2022/03/29 06:10:26;;;;;;;18.00;16.50;;;;;;;22.64;28.24;95066.56;6063340;28;103141;-63
2022/03/29 06:13:28;;;;;;;21.20;19.33;;;;;;;22.48;28.44;95030.69;6063050;28;103009;-64
2022/03/29 06:16:31;;;;;;;23.40;21.53;;;;;;;22.68;28.20;95059.53;6039993;28;104766;-62
2022/03/29 06:19:34;;;;;;;20.80;19.00;;;;;;;22.75;27.83;95059.09;6045470;28;102844;-64
2022/03/29 06:22:42;;;;;;;21.50;19.60;;;;;;;22.74;28.36;95038.06;6043527;28;103836;-63
2022/03/29 06:25:46;;;;;;;20.20;18.40;;;;;;;22.79;27.82;95051.25;6034364;28;103198;-63
2022/03/29 06:28:47;;;;;;;21.77;19.97;;;;;;;22.79;28.41;95046.69;6038973;28;103160;-63
2022/03/29 06:31:50;;;;;;;23.23;21.13;;;;;;;22.89;27.91;95050.97;6039646;28;103605;-63
2022/03/29 06:34:51;;;;;;;24.33;22.37;;;;;;;22.91;28.26;95054.09;6039519;28;103250;-65
2022/03/29 06:37:58;;;;;;;21.73;19.60;;;;;;;22.96;27.94;95053.94;6033960;28;104324;-64
2022/03/29 06:41:00;;;;;;;26.33;23.53;;;;;;;22.99;27.71;95051.44;6022701;28;103325;-64
2022/03/29 06:44:02;;;;;;;25.47;23.23;;;;;;;23.04;28.02;95052.41;6039419;28;103110;-63
2022/03/29 06:47:04;;;;;;;24.03;21.87;;;;;;;23.06;27.79;95050.22;6017441;28;103275;-63
2022/03/29 06:50:07;;;;;;;24.30;22.10;;;;;;;23.10;27.71;95046.59;6021490;28;103564;-65
2022/03/29 06:53:09;;;;;;;24.87;22.77;;;;;;;23.16;27.98;95039.22;6038524;28;103214;-66
2022/03/29 06:56:11;;;;;;;23.47;21.57;;;;;;;23.25;27.62;95042.69;6021396;28;103870;-67
2022/03/29 06:59:13;;;;;;;23.60;21.47;;;;;;;23.26;28.08;95031.72;6033801;28;105730;-67
2022/03/29 07:02:15;;;;;;;23.33;21.33;;;;;;;23.38;27.97;95030.34;6039636;28;103318;-64
2022/03/29 07:05:19;;;;;;;23.40;21.43;;;;;;;23.39;27.77;95032.69;6038862;28;104093;-62
2022/03/29 07:08:22;;;;;;;22.67;20.77;;;;;;;23.42;28.27;95034.72;6038862;28;102986;-63
2022/03/29 07:11:24;;;;;;;22.17;20.37;;;;;;;23.37;28.18;95026.09;6033858;28;103067;-64
2022/03/29 07:14:26;;;;;;;23.80;21.90;;;;;;;23.41;28.14;95029.72;6038035;28;103210;-64
2022/03/29 07:17:28;;;;;;;24.33;22.23;;;;;;;23.37;28.13;95028.78;6038848;28;103576;-64
2022/03/29 07:20:30;;;;;;;24.83;22.73;;;;;;;23.37;27.97;95026.88;6017967;28;104189;-64
2022/03/29 07:23:32;;;;;;;26.63;24.30;;;;;;;23.40;28.27;95020.91;6062098;28;103062;-65
2022/03/29 07:26:35;;;;;;;25.67;23.47;;;;;;;23.45;27.76;95017.28;6045664;28;103581;-64
2022/03/29 07:29:39;;;;;;;25.73;23.67;;;;;;;23.46;28.11;95018.84;6061157;28;103211;-64
2022/03/29 07:32:50;;;;;;;25.93;23.73;;;;;;;23.46;28.15;95019.66;6056736;28;104135;-64
2022/03/29 07:35:51;;;;;;;26.27;24.07;;;;;;;23.46;27.84;95016.97;6061863;28;104207;-64
2022/03/29 07:38:53;;;;;;;25.43;23.30;;;;;;;23.50;27.73;95009.09;6061804;28;103254;-65
2022/03/29 07:41:56;;;;;;;24.40;22.40;;;;;;;23.53;27.66;95013.84;6057824;28;103316;-64
2022/03/29 07:44:58;;;;;;;25.37;23.27;;;;;;;23.53;27.96;95006.63;6043498;28;103120;-63
2022/03/29 07:48:02;;;;;;;24.80;22.70;;;;;;;23.54;27.93;95008.19;6062597;28;103400;-64
2022/03/29 07:51:24;;;;;;;24.00;22.10;;;;;;;23.57;27.89;95004.88;6060524;28;104624;-64
2022/03/29 07:54:26;;;;;;;23.13;21.13;;;;;;;23.59;27.70;95007.22;6056008;28;104042;-64
2022/03/29 07:57:28;;;;;;;23.30;21.30;;;;;;;23.59;27.71;95002.66;6061424;28;103377;-64
2022/03/29 08:00:50;;;;;;;23.87;21.87;;;;;;;23.60;27.83;94996.22;6062109;28;103243;-65
2022/03/29 08:03:52;;;;;;;24.00;21.80;;;;;;;23.62;28.01;94987.09;6040763;28;103476;-65
2022/03/29 08:06:54;;;;;;;23.03;21.23;;;;;;;23.63;28.10;94989.47;6060322;28;103213;-64
2022/03/29 08:09:56;;;;;;;23.23;21.33;;;;;;;23.65;27.57;94986.47;6061974;28;104204;-64
2022/03/29 08:13:01;;;;;;;24.57;22.47;;;;;;;23.64;27.48;94988.34;6061354;28;102832;-65
2022/03/29 08:16:03;;;;;;;24.50;22.50;;;;;;;23.68;27.80;94991.97;6055801;28;103289;-64
2022/03/29 08:19:05;;;;;;;25.00;22.70;;;;;;;23.64;27.63;94977.66;6060876;28;103033;-64
2022/03/29 08:22:07;;;;;;;21.83;19.93;;;;;;;23.65;27.89;94973.91;6028104;28;104311;-63
2022/03/29 08:25:09;;;;;;;24.17;22.07;;;;;;;23.71;27.90;94969.19;6037762;28;104172;-64
2022/03/29 08:28:12;;;;;;;25.47;23.30;;;;;;;23.71;27.65;94969.97;6018655;28;103641;-64
2022/03/29 08:31:14;;;;;;;24.57;22.57;;;;;;;23.72;27.86;94970.75;6042148;28;106396;-64
2022/03/29 08:34:17;;;;;;;22.10;20.33;;;;;;;23.66;27.70;94959.44;6042060;28;103197;-64
2022/03/29 08:37:20;;;;;;;24.07;22.17;;;;;;;23.69;27.51;94950.00;6035938;28;103740;-64
2022/03/29 08:40:25;;;;;;;23.87;21.80;;;;;;;23.73;28.11;94950.94;6024766;28;103565;-64
2022/03/29 08:43:30;;;;;;;24.83;22.73;;;;;;;23.73;28.22;94946.38;6041098;28;104117;-64
2022/03/29 08:46:35;;;;;;;24.10;21.90;;;;;;;23.73;28.17;94948.28;6024537;28;103278;-64
2022/03/29 08:49:37;;;;;;;25.93;23.63;;;;;;;23.68;28.31;94938.53;6036037;28;103126;-64
2022/03/29 08:52:41;;;;;;;26.87;24.17;;;;;;;23.73;28.21;94937.59;6040780;28;103406;-64
2022/03/29 08:55:44;;;;;;;26.10;23.73;;;;;;;23.72;28.33;94928.78;6040783;28;104305;-64
2022/03/29 08:58:46;;;;;;;29.40;26.90;;;;;;;23.68;28.11;94919.81;6020190;28;103304;-65
2022/03/29 09:01:48;;;;;;;27.10;24.70;;;;;;;23.73;28.11;94925.00;6040404;28;103095;-64
2022/03/29 09:05:15;;;;;;;29.23;26.63;;;;;;;23.74;28.06;94926.59;6041440;28;103483;-63
2022/03/29 09:08:17;;;;;;;30.10;27.50;;;;;;;23.70;28.08;94914.19;6041197;28;102983;-64
2022/03/29 09:11:20;;;;;;;30.20;27.43;;;;;;;23.73;28.30;94914.31;6035531;28;103355;-65
2022/03/29 09:14:23;;;;;;;29.83;27.33;;;;;;;23.72;28.48;94894.06;6040861;28;103716;-63
2022/03/29 09:17:34;;;;;;;30.03;27.53;;;;;;;23.71;28.31;94894.38;6040897;28;103286;-64
2022/03/29 09:20:36;;;;;;;28.70;26.30;;;;;;;23.73;28.74;94889.50;6043482;28;103043;-64
2022/03/29 09:23:39;;;;;;;30.10;27.43;;;;;;;23.73;28.58;94892.94;6058564;28;103024;-63
2022/03/29 09:26:43;;;;;;;30.33;27.73;;;;;;;23.74;28.64;94886.50;6063645;28;103163;-64
2022/03/29 09:30:05;;;;;;;32.73;29.93;;;;;;;23.74;28.19;94881.16;6064604;28;102956;-63
2022/03/29 09:33:11;;;;;;;32.50;29.77;;;;;;;23.73;28.40;94879.59;6059572;28;104286;-64
2022/03/29 09:36:18;;;;;;;32.57;29.87;;;;;;;23.71;28.45;94871.13;6064097;28;103787;-63
2022/03/29 09:39:52;;;;;;;34.30;31.40;;;;;;;23.72;28.25;94864.66;6064999;28;103283;-63
2022/03/29 09:43:06;;;;;;;32.60;29.80;;;;;;;23.73;28.20;94868.13;6027998;28;103458;-65
2022/03/29 09:46:08;;;;;;;33.17;30.37;;;;;;;23.71;28.70;94857.75;6065856;28;102864;-63
2022/03/29 09:49:10;;;;;;;32.70;29.80;;;;;;;23.68;28.42;94841.56;6046817;28;105913;-64
2022/03/29 09:52:16;;;;;;;33.17;30.37;;;;;;;23.71;28.23;94851.63;6064507;28;103166;-63
2022/03/29 09:55:23;;;;;;;32.97;30.17;;;;;;;23.70;28.72;94845.50;6057167;28;103037;-63
2022/03/29 09:58:25;;;;;;;31.90;29.30;;;;;;;23.66;28.39;94839.22;6064320;28;103142;-64
2022/03/29 10:01:27;;;;;;;33.90;31.13;;;;;;;23.69;28.16;94843.94;6047499;28;103281;-63
2022/03/29 10:04:30;;;;;;;33.83;31.03;;;;;;;23.63;28.60;94831.84;6063454;28;103264;-64
2022/03/29 10:07:37;;;;;;;32.17;29.23;;;;;;;23.60;28.46;94824.47;6041417;28;103419;-63
2022/03/29 10:10:42;;;;;;;33.70;31.00;;;;;;;23.64;28.50;94825.41;6063326;28;103448;-65
2022/03/29 10:13:45;;;;;;;34.40;31.60;;;;;;;23.65;28.01;94815.50;6064057;28;103420;-63
2022/03/29 10:16:47;;;;;;;36.10;33.10;;;;;;;23.62;28.15;94816.13;6041531;28;103444;-64
2022/03/29 10:19:49;;;;;;;34.17;31.27;;;;;;;23.64;28.59;94813.94;6063833;28;106057;-63
2022/03/29 10:22:52;;;;;;;34.13;31.23;;;;;;;23.63;28.52;94810.47;6026083;28;103268;-63
2022/03/29 10:25:55;;;;;;;33.73;31.03;;;;;;;23.60;28.25;94798.53;6038850;28;105441;-64
2022/03/29 10:28:59;;;;;;;34.63;31.67;;;;;;;23.59;28.10;94799.66;6034187;28;103057;-63
2022/03/29 10:32:07;;;;;;;34.83;31.73;;;;;;;23.57;28.47;94803.75;6040048;28;103267;-63
2022/03/29 10:35:10;;;;;;;32.70;29.80;;;;;;;23.53;28.23;94792.16;6039542;28;103544;-64
2022/03/29 10:38:11;;;;;;;29.23;26.70;;;;;;;23.53;27.64;94790.25;6034884;28;103488;-64
2022/03/29 10:41:28;;;;;;;29.10;26.53;;;;;;;23.53;27.44;94786.81;6038515;28;103021;-63
2022/03/29 10:44:59;;;;;;;34.47;31.47;;;;;;;23.53;28.07;94784.91;6038884;28;103028;-63
2022/03/29 10:48:21;;;;;;;35.13;32.20;;;;;;;23.53;27.82;94776.91;6038886;28;103033;-63
2022/03/29 10:51:23;;;;;;;33.67;30.67;;;;;;;23.51;27.84;94779.09;6033203;28;104216;-63
2022/03/29 10:54:37;;;;;;;28.43;25.80;;;;;;;23.47;27.58;94774.72;6038695;28;104158;-64
2022/03/29 10:57:39;;;;;;;25.13;22.63;;;;;;;23.39;27.51;94754.19;6037884;28;103163;-64
2022/03/29 11:00:43;;;;;;;19.47;17.63;;;;;;;23.39;26.76;94759.53;6034301;28;104586;-64
2022/03/29 11:04:17;;;;;;;20.67;18.80;;;;;;;23.35;26.96;94753.25;6038804;28;103538;-64
2022/03/29 11:07:19;;;;;;;18.90;16.93;;;;;;;23.34;26.89;94746.34;6021870;28;103175;-63
2022/03/29 11:10:23;;;;;;;20.53;18.60;;;;;;;23.33;26.77;94739.44;6038565;28;102931;-64
2022/03/29 11:13:38;;;;;;;22.13;20.03;;;;;;;23.31;26.97;94734.41;6033251;28;103107;-64
2022/03/29 11:16:40;;;;;;;25.60;23.27;;;;;;;23.25;27.28;94725.78;6039399;28;102937;-64
2022/03/29 11:19:50;;;;;;;26.17;24.07;;;;;;;23.29;27.50;94732.06;6039480;28;105122;-64
2022/03/29 11:22:52;;;;;;;29.10;26.40;;;;;;;23.28;27.22;94727.00;6038337;28;103294;-64
2022/03/29 11:25:54;;;;;;;34.53;31.50;;;;;;;23.24;27.36;94713.53;6061448;28;103118;-63
2022/03/29 11:29:01;;;;;;;33.00;30.07;;;;;;;23.25;27.69;94714.31;6061999;28;104982;-64
2022/03/29 11:32:04;;;;;;;35.63;32.77;;;;;;;23.22;27.62;94709.63;6062050;28;105457;-63
2022/03/29 11:35:07;;;;;;;36.33;33.33;;;;;;;23.23;27.52;94714.63;6056903;28;103695;-64
2022/03/29 11:38:12;;;;;;;35.73;32.80;;;;;;;23.22;27.65;94712.28;6062238;28;103266;-63
2022/03/29 11:41:30;;;;;;;42.07;38.00;;;;;;;23.21;27.85;94702.72;6061565;28;103106;-63
2022/03/29 11:44:32;;;;;;;39.30;35.70;;;;;;;23.19;27.92;94692.38;6039674;28;103225;-64
2022/03/29 11:47:34;;;;;;;42.33;38.50;;;;;;;23.17;27.40;94705.22;6044356;28;102985;-63
2022/03/29 11:50:45;;;;;;;43.37;39.90;;;;;;;23.12;27.79;94686.72;6062390;28;103050;-64
2022/03/29 11:53:56;;;;;;;43.20;39.60;;;;;;;23.16;27.97;94692.19;6061572;28;103068;-64
2022/03/29 11:56:57;;;;;;;44.20;40.37;;;;;;;23.00;27.51;94667.94;6037925;28;103106;-63
2022/03/29 11:59:59;;;;;;;42.60;38.90;;;;;;;23.14;27.54;94689.06;6061228;28;102869;-63
2022/03/29 12:03:01;;;;;;;43.80;40.00;;;;;;;23.08;28.19;94680.47;6064664;28;105459;-64
2022/03/29 12:06:18;;;;;;;45.40;41.50;;;;;;;23.09;27.92;94684.69;6062971;28;102868;-64
2022/03/29 12:09:24;;;;;;;46.67;42.60;;;;;;;23.14;27.67;94681.06;6065666;28;103160;-65
2022/03/29 12:12:26;;;;;;;44.60;40.93;;;;;;;23.14;28.15;94675.72;6065457;28;103286;-64
2022/03/29 12:15:27;;;;;;;46.70;42.70;;;;;;;23.13;27.76;94668.81;6065815;28;103034;-64
2022/03/29 12:18:41;;;;;;;47.53;43.63;;;;;;;23.12;27.73;94665.38;6043358;28;102927;-63
2022/03/29 12:21:48;;;;;;;48.80;44.70;;;;;;;23.15;28.09;94656.72;6053388;28;103185;-63
2022/03/29 12:24:57;;;;;;;47.97;43.90;;;;;;;23.09;27.64;94655.34;6025156;28;103871;-63
2022/03/29 12:27:59;;;;;;;52.77;48.27;;;;;;;23.14;27.79;94649.81;6025073;28;103292;-63
2022/03/29 12:31:02;;;;;;;54.53;49.73;;;;;;;23.15;28.23;94648.72;6020434;28;103434;-64
2022/03/29 12:34:05;;;;;;;53.90;49.40;;;;;;;23.20;28.03;94642.44;6041234;28;103074;-62
2022/03/29 12:37:13;;;;;;;55.60;50.90;;;;;;;23.27;28.41;94634.69;6042331;28;103108;-63
2022/03/29 12:40:15;;;;;;;52.63;48.50;;;;;;;23.29;28.78;94629.81;6036980;28;104243;-63
2022/03/29 12:43:25;;;;;;;51.73;47.33;;;;;;;23.32;28.53;94631.84;6041855;28;103068;-62
2022/03/29 12:46:28;;;;;;;48.50;44.30;;;;;;;23.31;28.49;94622.28;6041242;28;103059;-61
2022/03/29 12:49:31;;;;;;;48.20;44.10;;;;;;;23.34;28.53;94626.19;6041238;28;103119;-63
2022/03/29 12:52:40;;;;;;;52.13;47.80;;;;;;;23.35;28.49;94614.38;6036712;28;103289;-64
2022/03/29 12:55:56;;;;;;;51.90;47.60;;;;;;;23.27;28.35;94616.00;6023123;28;104463;-63
2022/03/29 12:58:58;;;;;;;49.87;45.67;;;;;;;23.20;28.10;94602.38;6041911;28;102945;-64
2022/03/29 13:02:09;;;;;;;50.40;46.17;;;;;;;23.23;28.50;94607.84;6034939;28;103010;-63
2022/03/29 13:05:12;;;;;;;53.50;48.97;;;;;;;23.21;28.38;94610.06;6041405;28;103111;-63
2022/03/29 13:08:21;;;;;;;53.20;48.60;;;;;;;23.18;28.30;94600.00;6041672;28;103387;-65
2022/03/29 13:11:22;;;;;;;50.87;46.87;;;;;;;23.21;28.29;94598.59;6041026;28;103025;-63
2022/03/29 13:14:36;;;;;;;51.50;47.27;;;;;;;23.19;28.14;94588.25;6018879;28;103327;-64
2022/03/29 13:17:37;;;;;;;51.40;47.20;;;;;;;23.16;28.62;94586.22;6023763;28;103311;-63
2022/03/29 13:20:39;;;;;;;49.40;45.27;;;;;;;23.19;28.43;94580.25;6044859;28;103408;-63
2022/03/29 13:23:47;;;;;;;50.03;45.90;;;;;;;23.17;28.50;94570.97;6058749;28;102733;-63
2022/03/29 13:26:52;;;;;;;49.27;45.03;;;;;;;23.21;28.34;94580.72;6064431;28;103113;-63
2022/03/29 13:29:54;;;;;;;50.13;45.73;;;;;;;23.21;28.08;94578.03;6047137;28;102963;-63
2022/03/29 13:32:59;;;;;;;48.40;44.30;;;;;;;23.16;28.14;94564.84;6063490;28;103544;-63
2022/03/29 13:36:09;;;;;;;50.73;46.50;;;;;;;23.17;28.00;94561.06;6058581;28;103204;-63
2022/03/29 13:39:12;;;;;;;49.80;45.67;;;;;;;23.22;28.48;94562.81;6063726;28;103377;-63
2022/03/29 13:42:34;;;;;;;48.37;44.47;;;;;;;23.22;28.46;94547.56;6064477;28;102797;-63
2022/03/29 13:45:36;;;;;;;48.30;44.30;;;;;;;23.22;28.13;94549.44;6058718;28;103188;-64
2022/03/29 13:48:39;;;;;;;46.97;43.17;;;;;;;23.21;28.37;94551.34;6064247;28;103078;-63
2022/03/29 13:51:41;;;;;;;46.83;42.93;;;;;;;23.20;28.42;94536.44;6063701;28;103364;-63
2022/03/29 13:54:43;;;;;;;46.60;42.70;;;;;;;23.19;28.09;94542.09;6063182;28;103048;-64
2022/03/29 13:57:45;;;;;;;44.43;40.83;;;;;;;23.18;28.41;94533.28;6058643;28;103262;-63
2022/03/29 14:00:48;;;;;;;46.10;42.30;;;;;;;23.18;28.04;94538.63;6063202;28;103123;-64
2022/03/29 14:03:50;;;;;;;46.23;42.23;;;;;;;23.17;28.40;94534.38;6046077;28;104253;-63